createdAt,value
2018-03-15T00:00:50.069Z,1007.19
2018-03-15T00:01:50.084Z,1007.2
2018-03-15T00:02:50.099Z,1007.2
2018-03-15T00:03:50.115Z,1007.17
2018-03-15T00:05:50.146Z,1007.16
2018-03-15T00:06:50.160Z,1007.16
2018-03-15T00:07:50.176Z,1007.16
2018-03-15T00:08:50.192Z,1007.14
2018-03-15T00:09:50.207Z,1007.16
2018-03-15T00:10:50.222Z,1007.14
2018-03-15T00:11:50.238Z,1007.11
2018-03-15T00:12:50.254Z,1007.12
2018-03-15T00:13:50.268Z,1007.1
2018-03-15T00:14:50.285Z,1007.11
2018-03-15T00:15:50.298Z,1007.12
2018-03-15T00:16:50.314Z,1007.11
2018-03-15T00:17:50.335Z,1007.14
2018-03-15T00:18:50.344Z,1007.12
2018-03-15T00:19:50.361Z,1007.14
2018-03-15T00:21:50.390Z,1007.15
2018-03-15T00:22:50.406Z,1007.11
2018-03-15T00:23:50.423Z,1007.14
2018-03-15T00:24:50.436Z,1007.13
2018-03-15T00:25:50.454Z,1007.13
2018-03-15T00:26:50.476Z,1007.1
2018-03-15T00:27:50.484Z,1007.08
2018-03-15T00:28:50.498Z,1007.09
2018-03-15T00:29:50.513Z,1007
2018-03-15T00:30:50.529Z,1007.05
2018-03-15T00:31:50.547Z,1007.04
2018-03-15T00:32:50.561Z,1007.02
2018-03-15T00:33:50.587Z,1007
2018-03-15T00:34:50.591Z,1007.02
2018-03-15T00:35:50.608Z,1006.98
2018-03-15T00:37:50.637Z,1006.96
2018-03-15T00:38:50.654Z,1006.95
2018-03-15T00:39:50.667Z,1006.96
2018-03-15T00:40:50.683Z,1006.89
2018-03-15T00:41:50.699Z,1006.91
2018-03-15T00:42:50.713Z,1006.89
2018-03-15T00:43:50.728Z,1006.88
2018-03-15T00:44:50.745Z,1006.88
2018-03-15T00:45:50.760Z,1006.81
2018-03-15T00:46:50.775Z,1006.82
2018-03-15T00:47:50.791Z,1006.85
2018-03-15T00:48:50.806Z,1006.83
2018-03-15T00:49:50.821Z,1006.87
2018-03-15T00:50:50.836Z,1006.85
2018-03-15T00:52:50.869Z,1006.83
2018-03-15T00:53:50.884Z,1006.83
2018-03-15T00:54:50.899Z,1006.8
2018-03-15T00:55:50.914Z,1006.84
2018-03-15T00:56:50.930Z,1006.83
2018-03-15T00:57:50.944Z,1006.84
2018-03-15T00:58:50.961Z,1006.83
2018-03-15T00:59:50.975Z,1006.83
2018-03-15T01:00:50.990Z,1006.79
2018-03-15T01:01:51.006Z,1006.8
2018-03-15T01:02:51.022Z,1006.79
2018-03-15T01:03:51.038Z,1006.77
2018-03-15T01:04:51.052Z,1006.78
2018-03-15T01:05:51.068Z,1006.76
2018-03-15T01:06:51.084Z,1006.77
2018-03-15T01:07:51.099Z,1006.75
2018-03-15T01:08:51.114Z,1006.75
2018-03-15T01:09:51.131Z,1006.75
2018-03-15T01:10:51.145Z,1006.77
2018-03-15T01:11:51.160Z,1006.77
2018-03-15T01:12:51.175Z,1006.75
2018-03-15T01:13:51.191Z,1006.73
2018-03-15T01:14:51.207Z,1006.7
2018-03-15T01:15:51.222Z,1006.69
2018-03-15T01:16:51.237Z,1006.69
2018-03-15T01:17:51.253Z,1006.72
2018-03-15T01:18:51.268Z,1006.69
2018-03-15T01:19:51.283Z,1006.64
2018-03-15T01:20:51.298Z,1006.71
2018-03-15T01:21:51.314Z,1006.67
2018-03-15T01:22:51.329Z,1006.69
2018-03-15T01:24:51.360Z,1006.71
2018-03-15T01:25:51.376Z,1006.68
2018-03-15T01:26:51.491Z,1006.63
2018-03-15T01:27:51.406Z,1006.64
2018-03-15T01:28:51.421Z,1006.63
2018-03-15T01:29:51.439Z,1006.65
2018-03-15T01:30:51.453Z,1006.6
2018-03-15T01:31:51.467Z,1006.58
2018-03-15T01:32:51.484Z,1006.59
2018-03-15T01:33:51.498Z,1006.6
2018-03-15T01:34:51.518Z,1006.58
2018-03-15T01:35:51.529Z,1006.58
2018-03-15T01:36:51.545Z,1006.55
2018-03-15T01:37:51.560Z,1006.54
2018-03-15T01:38:51.576Z,1006.5
2018-03-15T01:40:51.607Z,1006.49
2018-03-15T01:41:51.621Z,1006.5
2018-03-15T01:42:51.638Z,1006.5
2018-03-15T01:43:51.653Z,1006.46
2018-03-15T01:44:51.667Z,1006.44
2018-03-15T01:45:51.683Z,1006.46
2018-03-15T01:46:51.698Z,1006.47
2018-03-15T01:47:51.714Z,1006.46
2018-03-15T01:48:51.729Z,1006.46
2018-03-15T01:49:51.744Z,1006.41
2018-03-15T01:50:51.760Z,1006.44
2018-03-15T01:51:51.775Z,1006.44
2018-03-15T01:52:51.789Z,1006.43
2018-03-15T01:53:51.805Z,1006.42
2018-03-15T01:54:51.821Z,1006.4
2018-03-15T01:56:51.850Z,1006.42
2018-03-15T01:57:51.867Z,1006.4
2018-03-15T01:58:51.888Z,1006.38
2018-03-15T01:59:51.897Z,1006.39
2018-03-15T02:00:51.913Z,1006.37
2018-03-15T02:01:51.928Z,1006.37
2018-03-15T02:02:51.944Z,1006.36
2018-03-15T02:03:51.959Z,1006.34
2018-03-15T02:04:51.974Z,1006.32
2018-03-15T02:05:51.989Z,1006.32
2018-03-15T02:06:52.004Z,1006.29
2018-03-15T02:07:52.020Z,1006.3
2018-03-15T02:08:52.035Z,1006.29
2018-03-15T02:09:52.051Z,1006.27
2018-03-15T02:10:52.120Z,1006.28
2018-03-15T02:12:52.096Z,1006.23
2018-03-15T02:13:52.113Z,1006.26
2018-03-15T02:14:52.126Z,1006.24
2018-03-15T02:15:52.141Z,1006.3
2018-03-15T02:16:52.157Z,1006.28
2018-03-15T02:17:52.174Z,1006.3
2018-03-15T02:18:52.188Z,1006.27
2018-03-15T02:19:52.203Z,1006.28
2018-03-15T02:20:52.222Z,1006.28
2018-03-15T02:21:52.233Z,1006.31
2018-03-15T02:22:52.250Z,1006.26
2018-03-15T02:23:52.263Z,1006.31
2018-03-15T02:24:52.280Z,1006.28
2018-03-15T02:25:52.295Z,1006.25
2018-03-15T02:27:52.326Z,1006.2
2018-03-15T02:28:52.341Z,1006.19
2018-03-15T02:29:52.356Z,1006.19
2018-03-15T02:30:52.373Z,1006.19
2018-03-15T02:31:52.387Z,1006.19
2018-03-15T02:32:52.402Z,1006.17
2018-03-15T02:33:52.468Z,1006.16
2018-03-15T02:34:52.432Z,1006.15
2018-03-15T02:35:52.449Z,1006.16
2018-03-15T02:36:52.464Z,1006.17
2018-03-15T02:37:52.478Z,1006.19
2018-03-15T02:38:52.493Z,1006.2
2018-03-15T02:39:52.507Z,1006.2
2018-03-15T02:40:52.524Z,1006.23
2018-03-15T02:41:52.538Z,1006.23
2018-03-15T02:42:52.658Z,1006.26
2018-03-15T02:43:52.570Z,1006.26
2018-03-15T02:44:52.583Z,1006.23
2018-03-15T02:45:52.599Z,1006.26
2018-03-15T02:46:52.614Z,1006.26
2018-03-15T02:47:52.629Z,1006.23
2018-03-15T02:48:52.648Z,1006.22
2018-03-15T02:49:52.662Z,1006.2
2018-03-15T02:50:52.675Z,1006.21
2018-03-15T02:51:52.689Z,1006.23
2018-03-15T02:52:52.706Z,1006.22
2018-03-15T02:53:52.775Z,1006.2
2018-03-15T02:54:52.734Z,1006.19
2018-03-15T02:55:52.751Z,1006.21
2018-03-15T02:56:52.766Z,1006.19
2018-03-15T02:57:52.780Z,1006.19
2018-03-15T02:59:52.815Z,1006.16
2018-03-15T03:00:52.827Z,1006.18
2018-03-15T03:01:52.841Z,1006.16
2018-03-15T03:02:52.856Z,1006.17
2018-03-15T03:03:52.872Z,1006.18
2018-03-15T03:04:52.891Z,1006.13
2018-03-15T03:05:52.901Z,1006.16
2018-03-15T03:06:52.917Z,1006.19
2018-03-15T03:07:52.932Z,1006.21
2018-03-15T03:08:52.951Z,1006.18
2018-03-15T03:09:52.962Z,1006.19
2018-03-15T03:10:52.983Z,1006.21
2018-03-15T03:11:52.993Z,1006.18
2018-03-15T03:12:53.008Z,1006.21
2018-03-15T03:13:53.022Z,1006.22
2018-03-15T03:15:53.053Z,1006.19
2018-03-15T03:16:53.068Z,1006.22
2018-03-15T03:17:53.087Z,1006.23
2018-03-15T03:18:53.100Z,1006.2
2018-03-15T03:19:53.113Z,1006.19
2018-03-15T03:20:53.128Z,1006.24
2018-03-15T03:21:53.144Z,1006.24
2018-03-15T03:22:53.159Z,1006.25
2018-03-15T03:23:53.174Z,1006.25
2018-03-15T03:24:53.189Z,1006.21
2018-03-15T03:25:53.207Z,1006.25
2018-03-15T03:26:53.221Z,1006.22
2018-03-15T03:27:53.233Z,1006.21
2018-03-15T03:28:53.250Z,1006.24
2018-03-15T03:29:53.266Z,1006.23
2018-03-15T03:31:53.296Z,1006.26
2018-03-15T03:32:53.311Z,1006.25
2018-03-15T03:33:53.331Z,1006.2
2018-03-15T03:34:53.340Z,1006.22
2018-03-15T03:35:53.356Z,1006.21
2018-03-15T03:36:53.375Z,1006.24
2018-03-15T03:37:53.387Z,1006.22
2018-03-15T03:38:53.402Z,1006.24
2018-03-15T03:39:53.423Z,1006.24
2018-03-15T03:40:53.432Z,1006.23
2018-03-15T03:41:53.447Z,1006.2
2018-03-15T03:42:53.462Z,1006.18
2018-03-15T03:43:53.477Z,1006.2
2018-03-15T03:44:53.493Z,1006.23
2018-03-15T03:45:53.508Z,1006.22
2018-03-15T03:47:53.539Z,1006.22
2018-03-15T03:48:53.554Z,1006.21
2018-03-15T03:49:53.567Z,1006.18
2018-03-15T03:50:53.583Z,1006.18
2018-03-15T03:51:53.599Z,1006.17
2018-03-15T03:52:53.613Z,1006.16
2018-03-15T03:53:53.629Z,1006.13
2018-03-15T03:54:53.644Z,1006.12
2018-03-15T03:55:53.660Z,1006.09
2018-03-15T03:56:53.674Z,1006.08
2018-03-15T03:57:53.690Z,1006.1
2018-03-15T03:58:53.704Z,1006.11
2018-03-15T03:59:53.720Z,1006.09
2018-03-15T04:00:53.740Z,1006.09
2018-03-15T04:02:53.767Z,1006.1
2018-03-15T04:03:53.805Z,1006.08
2018-03-15T04:04:53.796Z,1006.13
2018-03-15T04:05:53.812Z,1006.13
2018-03-15T04:06:53.826Z,1006.11
2018-03-15T04:07:53.842Z,1006.08
2018-03-15T04:08:53.857Z,1006.08
2018-03-15T04:09:53.872Z,1006.11
2018-03-15T04:10:53.887Z,1006.09
2018-03-15T04:11:53.902Z,1006.12
2018-03-15T04:12:53.917Z,1006.1
2018-03-15T04:13:53.933Z,1006.12
2018-03-15T04:14:53.947Z,1006.11
2018-03-15T04:15:53.963Z,1006.09
2018-03-15T04:16:53.977Z,1006.11
2018-03-15T04:17:53.993Z,1006.09
2018-03-15T04:18:54.007Z,1006.12
2018-03-15T04:19:54.022Z,1006.11
2018-03-15T04:20:54.038Z,1006.11
2018-03-15T04:21:54.052Z,1006.05
2018-03-15T04:22:54.067Z,1006.1
2018-03-15T04:23:54.083Z,1006.08
2018-03-15T04:24:54.098Z,1006.1
2018-03-15T04:25:54.113Z,1006.06
2018-03-15T04:26:54.127Z,1006.01
2018-03-15T04:27:54.143Z,1006.08
2018-03-15T04:28:54.160Z,1006.02
2018-03-15T04:29:54.173Z,1005.99
2018-03-15T04:30:54.220Z,1006.01
2018-03-15T04:31:54.204Z,1006.01
2018-03-15T04:32:54.218Z,1006.05
2018-03-15T04:34:54.249Z,1006.03
2018-03-15T04:35:54.264Z,1006.02
2018-03-15T04:36:54.278Z,1006.03
2018-03-15T04:37:54.293Z,1006
2018-03-15T04:38:54.308Z,1006.04
2018-03-15T04:39:54.323Z,1006.03
2018-03-15T04:40:54.337Z,1006.04
2018-03-15T04:41:54.352Z,1006
2018-03-15T04:42:54.368Z,1006
2018-03-15T04:43:54.383Z,1005.97
2018-03-15T04:44:54.396Z,1005.97
2018-03-15T04:45:54.414Z,1005.98
2018-03-15T04:46:54.429Z,1005.91
2018-03-15T04:47:54.443Z,1005.94
2018-03-15T04:48:54.459Z,1005.96
2018-03-15T04:50:54.488Z,1005.93
2018-03-15T04:51:54.503Z,1005.89
2018-03-15T04:52:54.519Z,1005.9
2018-03-15T04:53:54.534Z,1005.9
2018-03-15T04:54:54.548Z,1005.95
2018-03-15T04:55:54.563Z,1005.9
2018-03-15T04:56:54.578Z,1005.9
2018-03-15T04:57:54.594Z,1005.89
2018-03-15T04:58:54.610Z,1005.91
2018-03-15T04:59:54.623Z,1005.9
2018-03-15T05:00:54.639Z,1005.9
2018-03-15T05:01:54.754Z,1005.92
2018-03-15T05:02:54.668Z,1005.9
2018-03-15T05:03:54.683Z,1005.97
2018-03-15T05:04:54.699Z,1005.95
2018-03-15T05:06:54.728Z,1005.92
2018-03-15T05:07:54.744Z,1005.95
2018-03-15T05:08:54.759Z,1005.98
2018-03-15T05:09:54.824Z,1005.91
2018-03-15T05:10:54.788Z,1005.95
2018-03-15T05:11:54.804Z,1005.92
2018-03-15T05:12:54.819Z,1005.95
2018-03-15T05:13:54.832Z,1005.95
2018-03-15T05:14:54.857Z,1005.94
2018-03-15T05:15:54.864Z,1005.92
2018-03-15T05:16:54.878Z,1005.92
2018-03-15T05:17:54.898Z,1005.92
2018-03-15T05:18:54.908Z,1006
2018-03-15T05:19:54.923Z,1005.98
2018-03-15T05:20:54.940Z,1006.04
2018-03-15T05:22:54.975Z,1005.96
2018-03-15T05:23:54.983Z,1005.96
2018-03-15T05:24:54.997Z,1005.98
2018-03-15T05:25:55.012Z,1005.94
2018-03-15T05:26:55.027Z,1005.94
2018-03-15T05:27:55.042Z,1005.99
2018-03-15T05:28:55.057Z,1005.97
2018-03-15T05:29:55.073Z,1005.95
2018-03-15T05:30:55.088Z,1005.95
2018-03-15T05:31:55.105Z,1005.97
2018-03-15T05:32:55.117Z,1005.99
2018-03-15T05:33:55.132Z,1005.91
2018-03-15T05:34:55.147Z,1005.98
2018-03-15T05:35:55.163Z,1005.96
2018-03-15T05:37:55.194Z,1005.97
2018-03-15T05:38:55.208Z,1005.93
2018-03-15T05:39:55.223Z,1005.95
2018-03-15T05:40:55.242Z,1005.9
2018-03-15T05:41:55.253Z,1005.92
2018-03-15T05:42:55.268Z,1005.94
2018-03-15T05:43:55.283Z,1005.96
2018-03-15T05:44:55.357Z,1005.91
2018-03-15T05:45:55.313Z,1005.93
2018-03-15T05:46:55.327Z,1005.93
2018-03-15T05:47:55.343Z,1005.92
2018-03-15T05:48:55.358Z,1005.94
2018-03-15T05:49:55.372Z,1005.88
2018-03-15T05:50:55.388Z,1005.97
2018-03-15T05:51:55.402Z,1006.05
2018-03-15T05:52:55.417Z,1005.97
2018-03-15T05:53:55.432Z,1005.98
2018-03-15T05:54:55.447Z,1006
2018-03-15T05:55:55.463Z,1005.99
2018-03-15T05:56:55.476Z,1005.92
2018-03-15T05:57:55.495Z,1006.03
2018-03-15T05:58:55.507Z,1006.05
2018-03-15T05:59:55.522Z,1005.99
2018-03-15T06:00:55.537Z,1006.07
2018-03-15T06:01:55.551Z,1006.09
2018-03-15T06:02:55.567Z,1006.03
2018-03-15T06:03:55.582Z,1006.12
2018-03-15T06:04:55.596Z,1006.1
2018-03-15T06:05:55.611Z,1006.05
2018-03-15T06:06:55.627Z,1006.08
2018-03-15T06:07:55.641Z,1006.1
2018-03-15T06:09:55.672Z,1006.03
2018-03-15T06:10:55.687Z,1006.02
2018-03-15T06:11:55.701Z,1006.06
2018-03-15T06:12:55.716Z,1006.02
2018-03-15T06:13:55.779Z,1006.06
2018-03-15T06:14:55.746Z,1006.03
2018-03-15T06:15:55.759Z,1006.03
2018-03-15T06:16:55.776Z,1006.03
2018-03-15T06:17:55.791Z,1006.04
2018-03-15T06:18:55.805Z,1006.06
2018-03-15T06:19:55.820Z,1006.02
2018-03-15T06:20:55.841Z,1005.95
2018-03-15T06:21:55.850Z,1006.01
2018-03-15T06:22:55.864Z,1006.02
2018-03-15T06:23:55.880Z,1006.08
2018-03-15T06:25:55.910Z,1006.05
2018-03-15T06:26:55.923Z,1006.02
2018-03-15T06:27:55.938Z,1006.05
2018-03-15T06:28:55.954Z,1006.07
2018-03-15T06:29:55.968Z,1006.1
2018-03-15T06:30:55.983Z,1006.08
2018-03-15T06:31:55.999Z,1006.11
2018-03-15T06:32:56.014Z,1006.13
2018-03-15T06:33:56.028Z,1006.15
2018-03-15T06:34:56.043Z,1006.17
2018-03-15T06:35:56.058Z,1006.14
2018-03-15T06:36:56.174Z,1006.24
2018-03-15T06:37:56.087Z,1006.19
2018-03-15T06:38:56.102Z,1006.18
2018-03-15T06:39:56.118Z,1006.22
2018-03-15T06:41:56.152Z,1006.15
2018-03-15T06:42:56.162Z,1006.15
2018-03-15T06:43:56.181Z,1006.18
2018-03-15T06:44:56.192Z,1006.18
2018-03-15T06:45:56.207Z,1006.18
2018-03-15T06:46:56.222Z,1006.14
2018-03-15T06:47:56.237Z,1006.17
2018-03-15T06:48:56.251Z,1006.2
2018-03-15T06:49:56.266Z,1006.18
2018-03-15T06:50:56.282Z,1006.26
2018-03-15T06:51:56.296Z,1006.26
2018-03-15T06:52:56.311Z,1006.22
2018-03-15T06:53:56.325Z,1006.36
2018-03-15T06:54:56.340Z,1006.26
2018-03-15T06:55:56.355Z,1006.31
2018-03-15T06:57:56.385Z,1006.29
2018-03-15T06:58:56.404Z,1006.32
2018-03-15T06:59:56.415Z,1006.31
2018-03-15T07:00:56.436Z,1006.31
2018-03-15T07:01:56.445Z,1006.25
2018-03-15T07:02:56.460Z,1006.29
2018-03-15T07:03:56.474Z,1006.24
2018-03-15T07:04:56.490Z,1006.33
2018-03-15T07:05:56.505Z,1006.35
2018-03-15T07:06:56.519Z,1006.28
2018-03-15T07:07:56.539Z,1006.33
2018-03-15T07:08:56.553Z,1006.37
2018-03-15T07:09:56.565Z,1006.33
2018-03-15T07:10:56.580Z,1006.29
2018-03-15T07:12:56.621Z,1006.32
2018-03-15T07:13:56.625Z,1006.36
2018-03-15T07:14:56.639Z,1006.39
2018-03-15T07:15:56.655Z,1006.37
2018-03-15T07:16:56.673Z,1006.41
2018-03-15T07:17:56.689Z,1006.29
2018-03-15T07:18:56.700Z,1006.35
2018-03-15T07:19:56.716Z,1006.37
2018-03-15T07:20:56.729Z,1006.31
2018-03-15T07:21:56.745Z,1006.34
2018-03-15T07:22:56.760Z,1006.31
2018-03-15T07:23:56.824Z,1006.31
2018-03-15T07:24:56.793Z,1006.32
2018-03-15T07:25:56.804Z,1006.32
2018-03-15T07:26:56.821Z,1006.31
2018-03-15T07:27:56.834Z,1006.32
2018-03-15T07:28:56.848Z,1006.34
2018-03-15T07:29:56.865Z,1006.37
2018-03-15T07:30:56.929Z,1006.32
2018-03-15T07:31:56.894Z,1006.33
2018-03-15T07:32:56.912Z,1006.37
2018-03-15T07:33:56.924Z,1006.36
2018-03-15T07:34:56.940Z,1006.31
2018-03-15T07:35:56.955Z,1006.31
2018-03-15T07:36:56.969Z,1006.34
2018-03-15T07:37:56.984Z,1006.34
2018-03-15T07:38:56.999Z,1006.29
2018-03-15T07:39:57.013Z,1006.3
2018-03-15T07:40:57.028Z,1006.31
2018-03-15T07:41:57.044Z,1006.38
2018-03-15T07:42:57.059Z,1006.31
2018-03-15T07:44:57.089Z,1006.35
2018-03-15T07:45:57.104Z,1006.4
2018-03-15T07:46:57.122Z,1006.37
2018-03-15T07:47:57.134Z,1006.41
2018-03-15T07:48:57.148Z,1006.35
2018-03-15T07:49:57.164Z,1006.38
2018-03-15T07:50:57.182Z,1006.41
2018-03-15T07:51:57.194Z,1006.36
2018-03-15T07:52:57.209Z,1006.38
2018-03-15T07:53:57.324Z,1006.35
2018-03-15T07:54:57.239Z,1006.4
2018-03-15T07:55:57.256Z,1006.36
2018-03-15T07:56:57.269Z,1006.37
2018-03-15T07:57:57.287Z,1006.41
2018-03-15T07:58:57.299Z,1006.42
2018-03-15T08:00:57.330Z,1006.42
2018-03-15T08:01:57.343Z,1006.37
2018-03-15T08:02:57.359Z,1006.37
2018-03-15T08:03:57.377Z,1006.37
2018-03-15T08:04:57.388Z,1006.43
2018-03-15T08:05:57.403Z,1006.4
2018-03-15T08:06:57.420Z,1006.35
2018-03-15T08:07:57.435Z,1006.39
2018-03-15T08:08:57.449Z,1006.36
2018-03-15T08:09:57.464Z,1006.28
2018-03-15T08:10:57.479Z,1006.38
2018-03-15T08:11:57.495Z,1006.34
2018-03-15T08:12:57.512Z,1006.34
2018-03-15T08:13:57.524Z,1006.36
2018-03-15T08:14:57.539Z,1006.27
2018-03-15T08:16:57.569Z,1006.26
2018-03-15T08:17:57.584Z,1006.3
2018-03-15T08:18:57.600Z,1006.27
2018-03-15T08:19:57.612Z,1006.25
2018-03-15T08:20:57.628Z,1006.33
2018-03-15T08:21:57.644Z,1006.21
2018-03-15T08:22:57.659Z,1006.22
2018-03-15T08:23:57.676Z,1006.23
2018-03-15T08:24:57.689Z,1006.3
2018-03-15T08:25:57.706Z,1006.26
2018-03-15T08:26:57.718Z,1006.21
2018-03-15T08:27:57.736Z,1006.21
2018-03-15T08:28:57.750Z,1006.15
2018-03-15T08:29:57.799Z,1006.19
2018-03-15T08:30:57.779Z,1006.21
2018-03-15T08:32:57.816Z,1006.13
2018-03-15T08:33:57.826Z,1006.13
2018-03-15T08:34:57.840Z,1006.15
2018-03-15T08:35:57.855Z,1006.13
2018-03-15T08:36:57.871Z,1006.03
2018-03-15T08:37:57.885Z,1006.11
2018-03-15T08:38:57.901Z,1006.13
2018-03-15T08:39:57.917Z,1006.1
2018-03-15T08:40:57.983Z,1006.05
2018-03-15T08:41:57.947Z,1006.11
2018-03-15T08:42:57.963Z,1006.09
2018-03-15T08:43:57.980Z,1006.03
2018-03-15T08:44:57.994Z,1006.03
2018-03-15T08:45:58.010Z,1006.04
2018-03-15T08:47:58.041Z,1006.06
2018-03-15T08:48:58.058Z,1006.04
2018-03-15T08:49:58.071Z,1006.07
2018-03-15T08:50:58.087Z,1005.97
2018-03-15T08:51:58.110Z,1005.97
2018-03-15T08:52:58.118Z,1006
2018-03-15T08:53:58.137Z,1006.03
2018-03-15T08:54:58.150Z,1006.06
2018-03-15T08:55:58.164Z,1006
2018-03-15T08:56:58.225Z,1006.03
2018-03-15T08:57:58.195Z,1006.01
2018-03-15T08:58:58.211Z,1005.96
2018-03-15T08:59:58.226Z,1005.99
2018-03-15T09:00:58.242Z,1005.9
2018-03-15T09:01:58.258Z,1005.95
2018-03-15T09:02:58.273Z,1005.96
2018-03-15T09:03:58.292Z,1005.86
2018-03-15T09:04:58.348Z,1005.98
2018-03-15T09:05:58.320Z,1005.94
2018-03-15T09:06:58.335Z,1005.97
2018-03-15T09:07:58.351Z,1005.94
2018-03-15T09:08:58.370Z,1005.97
2018-03-15T09:09:58.383Z,1006.03
2018-03-15T09:10:58.426Z,1005.89
2018-03-15T09:11:58.413Z,1005.9
2018-03-15T09:12:58.430Z,1005.87
2018-03-15T09:13:58.446Z,1005.88
2018-03-15T09:14:58.461Z,1005.86
2018-03-15T09:15:58.477Z,1005.81
2018-03-15T09:16:58.494Z,1005.82
2018-03-15T09:17:58.510Z,1005.85
2018-03-15T09:19:58.538Z,1005.89
2018-03-15T09:20:58.555Z,1005.9
2018-03-15T09:21:58.599Z,1005.86
2018-03-15T09:22:58.586Z,1005.79
2018-03-15T09:23:58.603Z,1005.82
2018-03-15T09:24:58.619Z,1005.78
2018-03-15T09:25:58.633Z,1005.79
2018-03-15T09:26:58.653Z,1005.78
2018-03-15T09:27:58.665Z,1005.78
2018-03-15T09:28:58.680Z,1005.71
2018-03-15T09:29:58.701Z,1005.77
2018-03-15T09:30:58.712Z,1005.73
2018-03-15T09:31:58.736Z,1005.72
2018-03-15T09:32:58.744Z,1005.82
2018-03-15T09:33:58.759Z,1005.74
2018-03-15T09:35:58.792Z,1005.66
2018-03-15T09:36:58.807Z,1005.69
2018-03-15T09:37:58.823Z,1005.71
2018-03-15T09:38:58.889Z,1005.75
2018-03-15T09:39:58.854Z,1005.64
2018-03-15T09:40:58.871Z,1005.68
2018-03-15T09:41:58.987Z,1005.6
2018-03-15T09:42:58.903Z,1005.62
2018-03-15T09:43:58.918Z,1005.61
2018-03-15T09:44:58.935Z,1005.63
2018-03-15T09:45:58.950Z,1005.64
2018-03-15T09:46:58.967Z,1005.61
2018-03-15T09:47:58.982Z,1005.59
2018-03-15T09:48:58.998Z,1005.58
2018-03-15T09:49:59.014Z,1005.63
2018-03-15T09:51:59.047Z,1005.66
2018-03-15T09:52:59.063Z,1005.62
2018-03-15T09:53:59.079Z,1005.55
2018-03-15T09:54:59.097Z,1005.58
2018-03-15T09:55:59.111Z,1005.54
2018-03-15T09:56:59.128Z,1005.56
2018-03-15T09:57:59.144Z,1005.59
2018-03-15T09:58:59.160Z,1005.53
2018-03-15T09:59:59.177Z,1005.52
2018-03-15T10:00:59.193Z,1005.58
2018-03-15T10:01:59.258Z,1005.5
2018-03-15T10:02:59.225Z,1005.48
2018-03-15T10:03:59.242Z,1005.51
2018-03-15T10:04:59.259Z,1005.62
2018-03-15T10:05:59.274Z,1005.51
2018-03-15T10:07:59.308Z,1005.51
2018-03-15T10:08:59.345Z,1005.57
2018-03-15T10:09:59.339Z,1005.48
2018-03-15T10:10:59.357Z,1005.47
2018-03-15T10:11:59.373Z,1005.5
2018-03-15T10:12:59.389Z,1005.37
2018-03-15T10:13:59.405Z,1005.38
2018-03-15T10:14:59.422Z,1005.35
2018-03-15T10:15:59.438Z,1005.28
2018-03-15T10:16:59.453Z,1005.41
2018-03-15T10:17:59.472Z,1005.38
2018-03-15T10:18:59.487Z,1005.41
2018-03-15T10:19:59.504Z,1005.38
2018-03-15T10:20:59.521Z,1005.46
2018-03-15T10:22:59.554Z,1005.41
2018-03-15T10:23:59.570Z,1005.36
2018-03-15T10:24:59.586Z,1005.36
2018-03-15T10:25:59.604Z,1005.39
2018-03-15T10:26:59.620Z,1005.42
2018-03-15T10:27:59.636Z,1005.4
2018-03-15T10:28:59.652Z,1005.43
2018-03-15T10:29:59.671Z,1005.38
2018-03-15T10:30:59.744Z,1005.4
2018-03-15T10:31:59.702Z,1005.36
2018-03-15T10:32:59.718Z,1005.35
2018-03-15T10:33:59.736Z,1005.38
2018-03-15T10:34:59.751Z,1005.38
2018-03-15T10:35:59.768Z,1005.39
2018-03-15T10:36:59.786Z,1005.4
2018-03-15T10:37:59.802Z,1005.32
2018-03-15T10:38:59.818Z,1005.36
2018-03-15T10:39:59.835Z,1005.36
2018-03-15T10:40:59.853Z,1005.34
2018-03-15T10:41:59.869Z,1005.36
2018-03-15T10:42:59.886Z,1005.29
2018-03-15T10:43:59.903Z,1005.25
2018-03-15T10:44:59.920Z,1005.23
2018-03-15T10:45:59.936Z,1005.3
2018-03-15T10:46:59.953Z,1005.28
2018-03-15T10:47:59.986Z,1005.21
2018-03-15T10:48:59.993Z,1005.25
2018-03-15T10:50:00.004Z,1005.23
2018-03-15T10:51:00.026Z,1005.24
2018-03-15T10:52:00.040Z,1005.22
2018-03-15T10:53:00.056Z,1005.22
2018-03-15T10:55:00.094Z,1005.2
2018-03-15T10:56:00.107Z,1005.21
2018-03-15T10:57:00.123Z,1005.19
2018-03-15T10:58:00.142Z,1005.25
2018-03-15T10:59:00.160Z,1005.12
2018-03-15T11:00:00.202Z,1005.15
2018-03-15T11:01:00.195Z,1005.16
2018-03-15T11:02:00.260Z,1005.26
2018-03-15T11:03:00.229Z,1004.94
2018-03-15T11:04:00.245Z,1005.18
2018-03-15T11:05:00.263Z,1005.01
2018-03-15T11:06:00.281Z,1005.12
2018-03-15T11:07:00.298Z,1005.08
2018-03-15T11:08:00.364Z,1005.11
2018-03-15T11:09:00.332Z,1005.03
2018-03-15T11:11:00.367Z,1005.13
2018-03-15T11:12:00.384Z,1005.07
2018-03-15T11:13:00.402Z,1005.06
2018-03-15T11:14:00.420Z,1005.07
2018-03-15T11:15:00.436Z,1005.1
2018-03-15T11:16:00.503Z,1005.1
2018-03-15T11:17:00.470Z,1005.08
2018-03-15T11:18:00.489Z,1005.05
2018-03-15T11:19:00.505Z,1005.04
2018-03-15T11:20:00.524Z,1005
2018-03-15T11:21:00.541Z,1004.97
2018-03-15T11:22:00.559Z,1004.95
2018-03-15T11:23:00.575Z,1004.99
2018-03-15T11:24:00.696Z,1005.05
2018-03-15T11:25:00.611Z,1004.97
2018-03-15T11:27:00.645Z,1005.03
2018-03-15T11:28:00.662Z,1005.05
2018-03-15T11:29:00.680Z,1004.94
2018-03-15T11:30:00.708Z,1004.97
2018-03-15T11:31:00.714Z,1005.07
2018-03-15T11:32:00.732Z,1005
2018-03-15T11:33:00.751Z,1004.94
2018-03-15T11:34:00.766Z,1004.93
2018-03-15T11:35:00.783Z,1004.95
2018-03-15T11:36:00.800Z,1004.96
2018-03-15T11:37:00.819Z,1005.04
2018-03-15T11:38:00.836Z,1005.02
2018-03-15T11:39:00.853Z,1004.93
2018-03-15T11:40:00.871Z,1004.91
2018-03-15T11:41:00.888Z,1004.96
2018-03-15T11:43:00.923Z,1004.91
2018-03-15T11:44:00.941Z,1004.9
2018-03-15T11:45:01.012Z,1004.94
2018-03-15T11:46:00.975Z,1004.91
2018-03-15T11:47:00.999Z,1004.89
2018-03-15T11:48:01.009Z,1004.92
2018-03-15T11:49:01.027Z,1004.87
2018-03-15T11:50:01.098Z,1004.88
2018-03-15T11:51:01.063Z,1004.84
2018-03-15T11:52:01.080Z,1004.86
2018-03-15T11:53:01.098Z,1004.86
2018-03-15T11:54:01.116Z,1004.73
2018-03-15T11:55:01.134Z,1004.79
2018-03-15T11:56:01.154Z,1004.79
2018-03-15T11:58:01.188Z,1004.67
2018-03-15T11:59:01.205Z,1004.78
2018-03-15T12:00:01.223Z,1004.76
2018-03-15T12:01:01.241Z,1004.77
2018-03-15T12:02:01.259Z,1004.72
2018-03-15T12:03:01.276Z,1004.76
2018-03-15T12:04:01.295Z,1004.72
2018-03-15T12:05:01.316Z,1004.68
2018-03-15T12:06:01.330Z,1004.65
2018-03-15T12:07:01.348Z,1004.68
2018-03-15T12:08:01.367Z,1004.67
2018-03-15T12:09:01.483Z,1004.62
2018-03-15T12:10:01.404Z,1004.64
2018-03-15T12:11:01.419Z,1004.68
2018-03-15T12:12:01.437Z,1004.58
2018-03-15T12:13:01.456Z,1004.59
2018-03-15T12:14:01.474Z,1004.58
2018-03-15T12:15:01.490Z,1004.57
2018-03-15T12:16:01.510Z,1004.54
2018-03-15T12:17:01.579Z,1004.49
2018-03-15T12:18:01.546Z,1004.52
2018-03-15T12:19:01.564Z,1004.41
2018-03-15T12:20:01.582Z,1004.44
2018-03-15T12:21:01.700Z,1004.53
2018-03-15T12:22:01.619Z,1004.37
2018-03-15T12:23:01.642Z,1004.41
2018-03-15T12:24:01.655Z,1004.4
2018-03-15T12:25:01.672Z,1004.38
2018-03-15T12:26:01.691Z,1004.36
2018-03-15T12:27:01.810Z,1004.28
2018-03-15T12:28:01.727Z,1004.23
2018-03-15T12:30:01.764Z,1004.27
2018-03-15T12:31:01.786Z,1004.26
2018-03-15T12:32:01.800Z,1004.22
2018-03-15T12:33:01.823Z,1004.3
2018-03-15T12:34:01.838Z,1004.26
2018-03-15T12:35:01.862Z,1004.26
2018-03-15T12:36:01.874Z,1004.3
2018-03-15T12:37:01.893Z,1004.24
2018-03-15T12:38:01.911Z,1004.29
2018-03-15T12:39:01.930Z,1004.25
2018-03-15T12:40:02.002Z,1004.26
2018-03-15T12:41:01.967Z,1004.24
2018-03-15T12:42:01.985Z,1004.24
2018-03-15T12:43:02.002Z,1004.2
2018-03-15T12:44:02.023Z,1004.2
2018-03-15T12:46:02.060Z,1004.21
2018-03-15T12:47:02.080Z,1004.22
2018-03-15T12:48:02.194Z,1004.18
2018-03-15T12:49:02.115Z,1004.23
2018-03-15T12:50:02.130Z,1004.21